Orangeville, Canada
Current Conditions -  °F | °C
As of 8:00 AM on Friday 28 Nov 2014 (Local Time) from CYBN Reporting Station
Clear Clear  
Wind Chill:   Ceiling: Unl
Heat Index: 16°   Visibility: 9mi
Dew Point: 10°   Wind: 6mph
Humidity: 79%   Direction: 280°W
Pressure: 30.22"   Gusts: NA
Location:  43.92°N, 80.09°W
Report Text: CYBN 281300Z AUTO 28005KT 9SM CLR M09/M12 A3022 RMK SLP248
Loading
Personal Weather Stations






























Interactive Weather Map New forecast layout! Learn more

10-Day Weather Forecast

Advertisements
Track Severe Weather on mobile